sensor_id;sensor_type;location;lat;lon;timestamp;P1;durP1;ratioP1;P2;durP2;ratioP2
74483;SDS011;62942;52.462;10.846;2023-02-28T00:00:22;11.2;;;18.3;;
74483;SDS011;62942;52.462;10.846;2023-02-28T00:01:32;10.7;;;17.6;;
74483;SDS011;62942;52.462;10.846;2023-02-28T00:02:32;11.5;;;18.2;;
74483;SDS011;62942;52.462;10.846;2023-02-28T00:03:32;11.4;;;18.1;;
74483;SDS011;62942;52.462;10.846;2023-02-28T00:04:42;10.3;;;16.6;;
74483;SDS011;62942;52.462;10.846;2023-02-28T00:05:42;10.9;;;17;;
74483;SDS011;62942;52.462;10.846;2023-02-28T00:06:52;11.1;;;17.7;;
74483;SDS011;62942;52.462;10.846;2023-02-28T00:07:52;11.8;;;18.9;;
74483;SDS011;62942;52.462;10.846;2023-02-28T00:09:02;12.5;;;19.8;;
74483;SDS011;62942;52.462;10.846;2023-02-28T00:10:02;11.5;;;19.9;;
74483;SDS011;62942;52.462;10.846;2023-02-28T00:11:13;11.1;;;18;;
74483;SDS011;62942;52.462;10.846;2023-02-28T00:12:12;11.4;;;19.1;;
74483;SDS011;62942;52.462;10.846;2023-02-28T00:13:12;11.4;;;21.5;;
74483;SDS011;62942;52.462;10.846;2023-02-28T00:14:22;10.7;;;17;;
74483;SDS011;62942;52.462;10.846;2023-02-28T00:15:22;9.9;;;16.5;;
74483;SDS011;62942;52.462;10.846;2023-02-28T00:16:32;9.4;;;16.1;;
74483;SDS011;62942;52.462;10.846;2023-02-28T00:17:42;9.1;;;13.9;;
74483;SDS011;62942;52.462;10.846;2023-02-28T00:18:52;8.9;;;13.5;;
74483;SDS011;62942;52.462;10.846;2023-02-28T00:20:02;8.4;;;12.2;;
74483;SDS011;62942;52.462;10.846;2023-02-28T00:21:12;8.4;;;12.1;;
74483;SDS011;62942;52.462;10.846;2023-02-28T00:22:12;8.5;;;12.2;;
74483;SDS011;62942;52.462;10.846;2023-02-28T00:23:12;8.3;;;13.3;;
74483;SDS011;62942;52.462;10.846;2023-02-28T00:24:22;8.1;;;11.6;;
74483;SDS011;62942;52.462;10.846;2023-02-28T00:25:23;8.1;;;12.5;;
74483;SDS011;62942;52.462;10.846;2023-02-28T00:26:22;8;;;11.9;;
74483;SDS011;62942;52.462;10.846;2023-02-28T00:27:32;8;;;11.3;;
74483;SDS011;62942;52.462;10.846;2023-02-28T00:28:32;8.2;;;12;;
74483;SDS011;62942;52.462;10.846;2023-02-28T00:29:42;8.5;;;12.1;;
74483;SDS011;62942;52.462;10.846;2023-02-28T00:30:42;8.8;;;12.5;;
74483;SDS011;62942;52.462;10.846;2023-02-28T00:31:52;8.5;;;12.7;;
74483;SDS011;62942;52.462;10.846;2023-02-28T00:32:52;8.8;;;13.5;;
74483;SDS011;62942;52.462;10.846;2023-02-28T00:33:52;8.9;;;12.4;;
74483;SDS011;62942;52.462;10.846;2023-02-28T00:34:52;9.1;;;14.4;;
74483;SDS011;62942;52.462;10.846;2023-02-28T00:35:52;8.8;;;12.7;;
74483;SDS011;62942;52.462;10.846;2023-02-28T00:37:02;8.6;;;12.7;;
74483;SDS011;62942;52.462;10.846;2023-02-28T00:38:12;8.2;;;12.2;;
74483;SDS011;62942;52.462;10.846;2023-02-28T00:39:22;8.1;;;12.5;;
74483;SDS011;62942;52.462;10.846;2023-02-28T00:40:32;8.3;;;12.9;;
74483;SDS011;62942;52.462;10.846;2023-02-28T00:41:42;8.3;;;12.1;;
74483;SDS011;62942;52.462;10.846;2023-02-28T00:42:52;8;;;12.6;;
74483;SDS011;62942;52.462;10.846;2023-02-28T00:44:02;7.9;;;13.1;;
74483;SDS011;62942;52.462;10.846;2023-02-28T00:45:12;8.1;;;11.1;;
74483;SDS011;62942;52.462;10.846;2023-02-28T00:46:22;8.1;;;12.3;;
74483;SDS011;62942;52.462;10.846;2023-02-28T00:47:22;8.1;;;11.6;;
74483;SDS011;62942;52.462;10.846;2023-02-28T00:48:22;8.4;;;12.4;;
74483;SDS011;62942;52.462;10.846;2023-02-28T00:49:32;8.4;;;13;;
74483;SDS011;62942;52.462;10.846;2023-02-28T00:50:32;8.6;;;13.3;;
74483;SDS011;62942;52.462;10.846;2023-02-28T00:51:42;8.5;;;12.1;;
74483;SDS011;62942;52.462;10.846;2023-02-28T00:52:42;8.6;;;12.9;;
74483;SDS011;62942;52.462;10.846;2023-02-28T00:53:52;8.3;;;11.4;;
74483;SDS011;62942;52.462;10.846;2023-02-28T00:54:52;8.2;;;12.1;;
74483;SDS011;62942;52.462;10.846;2023-02-28T00:56:02;8.3;;;14.8;;
74483;SDS011;62942;52.462;10.846;2023-02-28T00:57:12;8.2;;;11.7;;
74483;SDS011;62942;52.462;10.846;2023-02-28T00:58:22;8.4;;;13.3;;
74483;SDS011;62942;52.462;10.846;2023-02-28T00:59:22;8.5;;;12.7;;
74483;SDS011;62942;52.462;10.846;2023-02-28T01:00:22;8.6;;;12.6;;
74483;SDS011;62942;52.462;10.846;2023-02-28T01:01:32;8.3;;;13.2;;
74483;SDS011;62942;52.462;10.846;2023-02-28T01:02:42;8;;;11.5;;
74483;SDS011;62942;52.462;10.846;2023-02-28T01:03:52;8.4;;;12.5;;
74483;SDS011;62942;52.462;10.846;2023-02-28T01:04:52;8.1;;;12;;
74483;SDS011;62942;52.462;10.846;2023-02-28T01:06:02;8.5;;;12.9;;
74483;SDS011;62942;52.462;10.846;2023-02-28T01:07:02;8;;;11.7;;
74483;SDS011;62942;52.462;10.846;2023-02-28T01:08:12;8.4;;;12.3;;
74483;SDS011;62942;52.462;10.846;2023-02-28T01:09:22;8.1;;;11.8;;
74483;SDS011;62942;52.462;10.846;2023-02-28T01:10:32;8.5;;;12.5;;
74483;SDS011;62942;52.462;10.846;2023-02-28T01:11:32;8.7;;;12.9;;
74483;SDS011;62942;52.462;10.846;2023-02-28T01:12:42;8.4;;;12.2;;
74483;SDS011;62942;52.462;10.846;2023-02-28T01:13:43;8.9;;;13.9;;
74483;SDS011;62942;52.462;10.846;2023-02-28T01:14:52;9.2;;;14;;
74483;SDS011;62942;52.462;10.846;2023-02-28T01:15:54;9.4;;;14.1;;
74483;SDS011;62942;52.462;10.846;2023-02-28T01:17:02;8.8;;;12.4;;
74483;SDS011;62942;52.462;10.846;2023-02-28T01:18:02;9.2;;;15.1;;
74483;SDS011;62942;52.462;10.846;2023-02-28T01:19:12;9.9;;;14.7;;
74483;SDS011;62942;52.462;10.846;2023-02-28T01:20:12;9.9;;;16.1;;
74483;SDS011;62942;52.462;10.846;2023-02-28T01:21:22;10;;;14.4;;
74483;SDS011;62942;52.462;10.846;2023-02-28T01:22:22;10.2;;;15.8;;
74483;SDS011;62942;52.462;10.846;2023-02-28T01:23:32;10;;;15.3;;
74483;SDS011;62942;52.462;10.846;2023-02-28T01:24:32;10;;;14.7;;
74483;SDS011;62942;52.462;10.846;2023-02-28T01:25:42;10.1;;;16.6;;
74483;SDS011;62942;52.462;10.846;2023-02-28T01:26:42;9.9;;;15.8;;
74483;SDS011;62942;52.462;10.846;2023-02-28T01:27:52;9.9;;;14.8;;
74483;SDS011;62942;52.462;10.846;2023-02-28T01:28:52;10.1;;;15.1;;
74483;SDS011;62942;52.462;10.846;2023-02-28T01:30:02;9.1;;;13.6;;
74483;SDS011;62942;52.462;10.846;2023-02-28T01:31:02;9;;;13.8;;
74483;SDS011;62942;52.462;10.846;2023-02-28T01:32:12;9.2;;;13.6;;
74483;SDS011;62942;52.462;10.846;2023-02-28T01:33:22;9.4;;;14.2;;
74483;SDS011;62942;52.462;10.846;2023-02-28T01:34:22;9.8;;;13.9;;
74483;SDS011;62942;52.462;10.846;2023-02-28T01:35:22;9.6;;;14.7;;
74483;SDS011;62942;52.462;10.846;2023-02-28T01:36:32;9.8;;;14.2;;
74483;SDS011;62942;52.462;10.846;2023-02-28T01:37:32;10.2;;;14.7;;
74483;SDS011;62942;52.462;10.846;2023-02-28T01:38:42;10;;;14.6;;
74483;SDS011;62942;52.462;10.846;2023-02-28T01:39:42;9.9;;;14.9;;
74483;SDS011;62942;52.462;10.846;2023-02-28T01:40:52;9.8;;;14.6;;
74483;SDS011;62942;52.462;10.846;2023-02-28T01:42:02;10.1;;;16.5;;
74483;SDS011;62942;52.462;10.846;2023-02-28T01:43:16;9.9;;;15.6;;
74483;SDS011;62942;52.462;10.846;2023-02-28T01:45:22;9.5;;;14.8;;
74483;SDS011;62942;52.462;10.846;2023-02-28T01:46:22;10;;;15.2;;
74483;SDS011;62942;52.462;10.846;2023-02-28T01:47:33;9.7;;;14.9;;
74483;SDS011;62942;52.462;10.846;2023-02-28T01:48:42;9.9;;;15.5;;
74483;SDS011;62942;52.462;10.846;2023-02-28T01:49:52;9.4;;;15.1;;
74483;SDS011;62942;52.462;10.846;2023-02-28T01:50:52;9;;;13.2;;
74483;SDS011;62942;52.462;10.846;2023-02-28T01:52:02;9.6;;;14.1;;
74483;SDS011;62942;52.462;10.846;2023-02-28T01:53:13;9.5;;;14;;
74483;SDS011;62942;52.462;10.846;2023-02-28T01:54:12;9.4;;;13.8;;
74483;SDS011;62942;52.462;10.846;2023-02-28T01:55:22;10.1;;;15.9;;
74483;SDS011;62942;52.462;10.846;2023-02-28T01:56:23;9.7;;;15.4;;
74483;SDS011;62942;52.462;10.846;2023-02-28T01:57:22;9.6;;;13.9;;
74483;SDS011;62942;52.462;10.846;2023-02-28T01:58:22;9.4;;;13.3;;
74483;SDS011;62942;52.462;10.846;2023-02-28T01:59:23;9.5;;;15.5;;
74483;SDS011;62942;52.462;10.846;2023-02-28T02:00:32;9.4;;;13.5;;
74483;SDS011;62942;52.462;10.846;2023-02-28T02:01:42;9.4;;;14;;
74483;SDS011;62942;52.462;10.846;2023-02-28T02:02:42;9.4;;;13.7;;
74483;SDS011;62942;52.462;10.846;2023-02-28T02:03:54;9.3;;;14.4;;
74483;SDS011;62942;52.462;10.846;2023-02-28T02:04:53;9.2;;;13.8;;
74483;SDS011;62942;52.462;10.846;2023-02-28T02:05:52;8.9;;;13.3;;
74483;SDS011;62942;52.462;10.846;2023-02-28T02:07:02;9.7;;;15.1;;
74483;SDS011;62942;52.462;10.846;2023-02-28T02:08:03;9.1;;;14.2;;
74483;SDS011;62942;52.462;10.846;2023-02-28T02:09:02;9.1;;;13;;
74483;SDS011;62942;52.462;10.846;2023-02-28T02:10:13;9.3;;;14.3;;
74483;SDS011;62942;52.462;10.846;2023-02-28T02:11:12;9.8;;;15.3;;
74483;SDS011;62942;52.462;10.846;2023-02-28T02:12:14;9.6;;;14.4;;
74483;SDS011;62942;52.462;10.846;2023-02-28T02:13:28;9.8;;;14.1;;
74483;SDS011;62942;52.462;10.846;2023-02-28T02:14:36;10.4;;;15.7;;
74483;SDS011;62942;52.462;10.846;2023-02-28T02:15:33;9.8;;;14.2;;
74483;SDS011;62942;52.462;10.846;2023-02-28T02:16:46;9.5;;;14.8;;
74483;SDS011;62942;52.462;10.846;2023-02-28T02:17:43;9.7;;;15.3;;
74483;SDS011;62942;52.462;10.846;2023-02-28T02:18:43;10;;;15.2;;
74483;SDS011;62942;52.462;10.846;2023-02-28T02:20:41;9.6;;;14.6;;
74483;SDS011;62942;52.462;10.846;2023-02-28T02:21:54;9.6;;;14.7;;
74483;SDS011;62942;52.462;10.846;2023-02-28T02:21:58;9.2;;;12.7;;
74483;SDS011;62942;52.462;10.846;2023-02-28T02:23:11;9.4;;;14.6;;
74483;SDS011;62942;52.462;10.846;2023-02-28T02:24:03;9.9;;;17.2;;
74483;SDS011;62942;52.462;10.846;2023-02-28T02:25:15;9.4;;;14.2;;
74483;SDS011;62942;52.462;10.846;2023-02-28T02:26:27;9.6;;;15.1;;
74483;SDS011;62942;52.462;10.846;2023-02-28T02:27:37;9.5;;;13.8;;
74483;SDS011;62942;52.462;10.846;2023-02-28T02:28:40;9.4;;;13.4;;
74483;SDS011;62942;52.462;10.846;2023-02-28T02:30:53;9.6;;;14;;
74483;SDS011;62942;52.462;10.846;2023-02-28T02:30:58;9.9;;;15.1;;
74483;SDS011;62942;52.462;10.846;2023-02-28T02:31:55;9.6;;;14.8;;
74483;SDS011;62942;52.462;10.846;2023-02-28T02:33:11;10.1;;;15;;
74483;SDS011;62942;52.462;10.846;2023-02-28T02:34:23;10;;;14.6;;
74483;SDS011;62942;52.462;10.846;2023-02-28T02:35:05;10.1;;;15.8;;
74483;SDS011;62942;52.462;10.846;2023-02-28T02:36:13;10.2;;;14.9;;
74483;SDS011;62942;52.462;10.846;2023-02-28T02:37:14;9.9;;;14.2;;
74483;SDS011;62942;52.462;10.846;2023-02-28T02:38:25;10.1;;;15;;
74483;SDS011;62942;52.462;10.846;2023-02-28T02:39:34;9.8;;;14.4;;
74483;SDS011;62942;52.462;10.846;2023-02-28T02:40:33;9.8;;;14.3;;
74483;SDS011;62942;52.462;10.846;2023-02-28T02:41:44;9.7;;;14.3;;
74483;SDS011;62942;52.462;10.846;2023-02-28T02:42:52;9.9;;;16;;
74483;SDS011;62942;52.462;10.846;2023-02-28T02:44:02;9.5;;;15;;
74483;SDS011;62942;52.462;10.846;2023-02-28T02:45:12;9.7;;;16;;
74483;SDS011;62942;52.462;10.846;2023-02-28T02:46:23;10;;;15.5;;
74483;SDS011;62942;52.462;10.846;2023-02-28T02:47:22;10.3;;;14.4;;
74483;SDS011;62942;52.462;10.846;2023-02-28T02:48:24;9.8;;;14.2;;
74483;SDS011;62942;52.462;10.846;2023-02-28T02:49:32;9.7;;;13.6;;
74483;SDS011;62942;52.462;10.846;2023-02-28T02:50:33;10.2;;;14.9;;
74483;SDS011;62942;52.462;10.846;2023-02-28T02:51:42;9.9;;;15.7;;
74483;SDS011;62942;52.462;10.846;2023-02-28T02:52:53;9.4;;;14.8;;
74483;SDS011;62942;52.462;10.846;2023-02-28T02:54:03;8.8;;;12.4;;
74483;SDS011;62942;52.462;10.846;2023-02-28T02:55:13;8.9;;;13.7;;
74483;SDS011;62942;52.462;10.846;2023-02-28T02:56:12;9;;;13.2;;
74483;SDS011;62942;52.462;10.846;2023-02-28T02:57:23;8.5;;;12.5;;
74483;SDS011;62942;52.462;10.846;2023-02-28T02:58:23;8.8;;;12.9;;
74483;SDS011;62942;52.462;10.846;2023-02-28T02:59:32;8.4;;;12.4;;
74483;SDS011;62942;52.462;10.846;2023-02-28T03:00:42;8.9;;;13.3;;
74483;SDS011;62942;52.462;10.846;2023-02-28T03:01:42;8.5;;;14;;
74483;SDS011;62942;52.462;10.846;2023-02-28T03:02:42;8.3;;;12.3;;
74483;SDS011;62942;52.462;10.846;2023-02-28T03:03:52;8.2;;;12.7;;
74483;SDS011;62942;52.462;10.846;2023-02-28T03:04:52;8.5;;;12.6;;
74483;SDS011;62942;52.462;10.846;2023-02-28T03:06:02;8.6;;;12.1;;
74483;SDS011;62942;52.462;10.846;2023-02-28T03:07:02;8.8;;;13.5;;
74483;SDS011;62942;52.462;10.846;2023-02-28T03:08:12;8.6;;;11.9;;
74483;SDS011;62942;52.462;10.846;2023-02-28T03:09:12;9.3;;;14;;
74483;SDS011;62942;52.462;10.846;2023-02-28T03:10:26;8.8;;;12.6;;
74483;SDS011;62942;52.462;10.846;2023-02-28T03:11:32;8.1;;;12.9;;
74483;SDS011;62942;52.462;10.846;2023-02-28T03:12:32;8.3;;;13.1;;
74483;SDS011;62942;52.462;10.846;2023-02-28T03:14:07;8.8;;;12;;
74483;SDS011;62942;52.462;10.846;2023-02-28T03:14:34;7.9;;;11.9;;
74483;SDS011;62942;52.462;10.846;2023-02-28T03:15:32;7.7;;;10.6;;
74483;SDS011;62942;52.462;10.846;2023-02-28T03:16:33;8.5;;;12.9;;
74483;SDS011;62942;52.462;10.846;2023-02-28T03:17:46;8.1;;;12.1;;
74483;SDS011;62942;52.462;10.846;2023-02-28T03:18:43;7.8;;;11.1;;
74483;SDS011;62942;52.462;10.846;2023-02-28T03:19:45;8.2;;;14;;
74483;SDS011;62942;52.462;10.846;2023-02-28T03:20:44;7.7;;;11.2;;
74483;SDS011;62942;52.462;10.846;2023-02-28T03:21:56;7.8;;;11.8;;
74483;SDS011;62942;52.462;10.846;2023-02-28T03:22:52;8;;;12.1;;
74483;SDS011;62942;52.462;10.846;2023-02-28T03:23:53;8;;;12.7;;
74483;SDS011;62942;52.462;10.846;2023-02-28T03:25:03;8;;;11.8;;
74483;SDS011;62942;52.462;10.846;2023-02-28T03:26:13;7.5;;;10.8;;
74483;SDS011;62942;52.462;10.846;2023-02-28T03:27:20;7.2;;;10.8;;
74483;SDS011;62942;52.462;10.846;2023-02-28T03:28:13;7;;;10.6;;
74483;SDS011;62942;52.462;10.846;2023-02-28T03:29:13;7.7;;;10.8;;
74483;SDS011;62942;52.462;10.846;2023-02-28T03:30:23;8;;;12.1;;
74483;SDS011;62942;52.462;10.846;2023-02-28T03:31:22;7.6;;;11;;
74483;SDS011;62942;52.462;10.846;2023-02-28T03:32:33;7.1;;;10.9;;
74483;SDS011;62942;52.462;10.846;2023-02-28T03:33:43;7.5;;;10.8;;
74483;SDS011;62942;52.462;10.846;2023-02-28T03:34:42;7.4;;;10.7;;
74483;SDS011;62942;52.462;10.846;2023-02-28T03:35:42;7.3;;;10.8;;
74483;SDS011;62942;52.462;10.846;2023-02-28T03:36:52;7.2;;;10;;
74483;SDS011;62942;52.462;10.846;2023-02-28T03:37:53;6.8;;;9.6;;
74483;SDS011;62942;52.462;10.846;2023-02-28T03:38:53;6.7;;;9.2;;
74483;SDS011;62942;52.462;10.846;2023-02-28T03:39:53;6.4;;;10.1;;
74483;SDS011;62942;52.462;10.846;2023-02-28T03:40:55;6.5;;;9.7;;
74483;SDS011;62942;52.462;10.846;2023-02-28T03:41:52;6.7;;;9.8;;
74483;SDS011;62942;52.462;10.846;2023-02-28T03:42:53;6.8;;;10.3;;
74483;SDS011;62942;52.462;10.846;2023-02-28T03:44:03;6.8;;;10.3;;
74483;SDS011;62942;52.462;10.846;2023-02-28T03:45:13;6.5;;;10;;
74483;SDS011;62942;52.462;10.846;2023-02-28T03:46:22;6.4;;;9.6;;
74483;SDS011;62942;52.462;10.846;2023-02-28T03:47:22;6.3;;;9.3;;
74483;SDS011;62942;52.462;10.846;2023-02-28T03:48:22;6.1;;;8.8;;
74483;SDS011;62942;52.462;10.846;2023-02-28T03:49:32;6.8;;;9.3;;
74483;SDS011;62942;52.462;10.846;2023-02-28T03:50:42;6.7;;;10.4;;
74483;SDS011;62942;52.462;10.846;2023-02-28T03:51:52;6.7;;;9.8;;
74483;SDS011;62942;52.462;10.846;2023-02-28T03:52:53;6.2;;;9.1;;
74483;SDS011;62942;52.462;10.846;2023-02-28T03:53:52;6.4;;;9.9;;
74483;SDS011;62942;52.462;10.846;2023-02-28T03:54:52;6.4;;;9.5;;
74483;SDS011;62942;52.462;10.846;2023-02-28T03:55:53;6.5;;;9.7;;
74483;SDS011;62942;52.462;10.846;2023-02-28T03:57:03;6.4;;;10;;
74483;SDS011;62942;52.462;10.846;2023-02-28T03:58:13;6.4;;;9.3;;
74483;SDS011;62942;52.462;10.846;2023-02-28T03:59:22;6;;;9.1;;
74483;SDS011;62942;52.462;10.846;2023-02-28T04:00:32;5.9;;;9;;
74483;SDS011;62942;52.462;10.846;2023-02-28T04:01:33;6.6;;;10.6;;
74483;SDS011;62942;52.462;10.846;2023-02-28T04:02:32;6.1;;;8.8;;
74483;SDS011;62942;52.462;10.846;2023-02-28T04:03:32;6.1;;;8.7;;
74483;SDS011;62942;52.462;10.846;2023-02-28T04:04:32;6.4;;;9.9;;
74483;SDS011;62942;52.462;10.846;2023-02-28T04:05:32;6.2;;;9.1;;
74483;SDS011;62942;52.462;10.846;2023-02-28T04:06:42;6.8;;;10.6;;
74483;SDS011;62942;52.462;10.846;2023-02-28T04:07:42;6.5;;;8.8;;
74483;SDS011;62942;52.462;10.846;2023-02-28T04:08:52;6.8;;;10.2;;
74483;SDS011;62942;52.462;10.846;2023-02-28T04:10:02;6.5;;;9.1;;
74483;SDS011;62942;52.462;10.846;2023-02-28T04:11:03;6.6;;;10.1;;
74483;SDS011;62942;52.462;10.846;2023-02-28T04:12:02;6.8;;;9.8;;
74483;SDS011;62942;52.462;10.846;2023-02-28T04:13:11;6.5;;;9.5;;
74483;SDS011;62942;52.462;10.846;2023-02-28T04:14:12;6.5;;;9.8;;
74483;SDS011;62942;52.462;10.846;2023-02-28T04:15:21;6.4;;;10.7;;
74483;SDS011;62942;52.462;10.846;2023-02-28T04:16:22;6.7;;;10.4;;
74483;SDS011;62942;52.462;10.846;2023-02-28T04:17:32;6.9;;;10;;
74483;SDS011;62942;52.462;10.846;2023-02-28T04:18:42;6.8;;;10.8;;
74483;SDS011;62942;52.462;10.846;2023-02-28T04:19:52;6.8;;;11.6;;
74483;SDS011;62942;52.462;10.846;2023-02-28T04:21:01;6.7;;;9.7;;
74483;SDS011;62942;52.462;10.846;2023-02-28T04:22:11;6.5;;;9.2;;
74483;SDS011;62942;52.462;10.846;2023-02-28T04:23:21;7;;;11.3;;
74483;SDS011;62942;52.462;10.846;2023-02-28T04:24:22;6.9;;;9.3;;
74483;SDS011;62942;52.462;10.846;2023-02-28T04:25:32;6.6;;;10.1;;
74483;SDS011;62942;52.462;10.846;2023-02-28T04:26:42;6.8;;;9.9;;
74483;SDS011;62942;52.462;10.846;2023-02-28T04:27:51;6.7;;;9.4;;
74483;SDS011;62942;52.462;10.846;2023-02-28T04:28:52;6.3;;;9.1;;
74483;SDS011;62942;52.462;10.846;2023-02-28T04:30:02;6.4;;;10.1;;
74483;SDS011;62942;52.462;10.846;2023-02-28T04:31:03;7;;;10;;
74483;SDS011;62942;52.462;10.846;2023-02-28T04:32:02;7.1;;;10.4;;
74483;SDS011;62942;52.462;10.846;2023-02-28T04:33:02;7;;;10.7;;
74483;SDS011;62942;52.462;10.846;2023-02-28T04:34:11;6.9;;;10.6;;
74483;SDS011;62942;52.462;10.846;2023-02-28T04:35:21;6.7;;;9.4;;
74483;SDS011;62942;52.462;10.846;2023-02-28T04:36:32;7.2;;;11.2;;
74483;SDS011;62942;52.462;10.846;2023-02-28T04:37:41;6.9;;;10.2;;
74483;SDS011;62942;52.462;10.846;2023-02-28T04:38:51;6.6;;;9.8;;
74483;SDS011;62942;52.462;10.846;2023-02-28T04:39:51;7.2;;;10.6;;
74483;SDS011;62942;52.462;10.846;2023-02-28T04:41:02;7.4;;;10;;
74483;SDS011;62942;52.462;10.846;2023-02-28T04:42:02;7.2;;;10.3;;
74483;SDS011;62942;52.462;10.846;2023-02-28T04:43:01;7.1;;;10.5;;
74483;SDS011;62942;52.462;10.846;2023-02-28T04:44:11;6.9;;;10.5;;
74483;SDS011;62942;52.462;10.846;2023-02-28T04:45:21;6.7;;;10;;
74483;SDS011;62942;52.462;10.846;2023-02-28T04:46:31;6.9;;;10.7;;
74483;SDS011;62942;52.462;10.846;2023-02-28T04:47:41;7;;;10.8;;
74483;SDS011;62942;52.462;10.846;2023-02-28T04:48:41;7.2;;;9.4;;
74483;SDS011;62942;52.462;10.846;2023-02-28T04:49:51;7.1;;;10.8;;
74483;SDS011;62942;52.462;10.846;2023-02-28T04:50:52;7.3;;;10.3;;
74483;SDS011;62942;52.462;10.846;2023-02-28T04:52:01;7.5;;;11.5;;
74483;SDS011;62942;52.462;10.846;2023-02-28T04:53:11;7.3;;;11.8;;
74483;SDS011;62942;52.462;10.846;2023-02-28T04:54:21;7.7;;;11.2;;
74483;SDS011;62942;52.462;10.846;2023-02-28T04:55:22;7.7;;;10.8;;
74483;SDS011;62942;52.462;10.846;2023-02-28T04:56:31;7.3;;;11.1;;
74483;SDS011;62942;52.462;10.846;2023-02-28T04:57:41;7.3;;;9.9;;
74483;SDS011;62942;52.462;10.846;2023-02-28T04:58:51;7.6;;;10.9;;
74483;SDS011;62942;52.462;10.846;2023-02-28T05:00:02;7.3;;;10.4;;
74483;SDS011;62942;52.462;10.846;2023-02-28T05:01:16;7.8;;;11.1;;
74483;SDS011;62942;52.462;10.846;2023-02-28T05:02:21;7.6;;;11.3;;
74483;SDS011;62942;52.462;10.846;2023-02-28T05:03:31;7.6;;;10.6;;
74483;SDS011;62942;52.462;10.846;2023-02-28T05:04:32;8;;;11.8;;
74483;SDS011;62942;52.462;10.846;2023-02-28T05:05:41;7.7;;;11;;
74483;SDS011;62942;52.462;10.846;2023-02-28T05:06:41;7.5;;;9.9;;
74483;SDS011;62942;52.462;10.846;2023-02-28T05:07:51;7.5;;;10.9;;
74483;SDS011;62942;52.462;10.846;2023-02-28T05:08:52;8.1;;;11.6;;
74483;SDS011;62942;52.462;10.846;2023-02-28T05:09:51;7.7;;;10.3;;
74483;SDS011;62942;52.462;10.846;2023-02-28T05:10:51;7.7;;;11.2;;
74483;SDS011;62942;52.462;10.846;2023-02-28T05:12:01;7.7;;;11.1;;
74483;SDS011;62942;52.462;10.846;2023-02-28T05:13:11;7.2;;;10.7;;
74483;SDS011;62942;52.462;10.846;2023-02-28T05:14:12;7.3;;;10.3;;
74483;SDS011;62942;52.462;10.846;2023-02-28T05:15:21;7.6;;;10.2;;
74483;SDS011;62942;52.462;10.846;2023-02-28T05:16:21;7.2;;;11;;
74483;SDS011;62942;52.462;10.846;2023-02-28T05:17:31;6.9;;;10.1;;
74483;SDS011;62942;52.462;10.846;2023-02-28T05:18:41;6.8;;;10.4;;
74483;SDS011;62942;52.462;10.846;2023-02-28T05:19:41;6.5;;;9.6;;
74483;SDS011;62942;52.462;10.846;2023-02-28T05:20:41;6.5;;;9.8;;
74483;SDS011;62942;52.462;10.846;2023-02-28T05:21:47;6.4;;;9.3;;
74483;SDS011;62942;52.462;10.846;2023-02-28T05:22:51;6.4;;;9.6;;
74483;SDS011;62942;52.462;10.846;2023-02-28T05:24:02;6.7;;;10.7;;
74483;SDS011;62942;52.462;10.846;2023-02-28T05:25:01;6.7;;;9.7;;
74483;SDS011;62942;52.462;10.846;2023-02-28T05:26:11;6.8;;;9.3;;
74483;SDS011;62942;52.462;10.846;2023-02-28T05:27:21;6.9;;;9.9;;
74483;SDS011;62942;52.462;10.846;2023-02-28T05:28:31;7.1;;;10.7;;
74483;SDS011;62942;52.462;10.846;2023-02-28T05:29:41;7.6;;;10.8;;
74483;SDS011;62942;52.462;10.846;2023-02-28T05:30:51;7.3;;;10.6;;
74483;SDS011;62942;52.462;10.846;2023-02-28T05:31:51;7.4;;;11;;
74483;SDS011;62942;52.462;10.846;2023-02-28T05:33:01;7.8;;;11.1;;
74483;SDS011;62942;52.462;10.846;2023-02-28T05:34:01;7.8;;;11.4;;
74483;SDS011;62942;52.462;10.846;2023-02-28T05:35:11;7.9;;;12;;
74483;SDS011;62942;52.462;10.846;2023-02-28T05:36:22;7.4;;;11.2;;
74483;SDS011;62942;52.462;10.846;2023-02-28T05:37:31;7.6;;;11.5;;
74483;SDS011;62942;52.462;10.846;2023-02-28T05:38:31;7.3;;;10.9;;
74483;SDS011;62942;52.462;10.846;2023-02-28T05:39:31;7.4;;;11;;
74483;SDS011;62942;52.462;10.846;2023-02-28T05:40:41;7.4;;;10.5;;
74483;SDS011;62942;52.462;10.846;2023-02-28T05:41:51;7.1;;;10.1;;
74483;SDS011;62942;52.462;10.846;2023-02-28T05:43:01;6.8;;;10.7;;
74483;SDS011;62942;52.462;10.846;2023-02-28T05:44:11;6.8;;;9.8;;
74483;SDS011;62942;52.462;10.846;2023-02-28T05:45:21;7;;;9.7;;
74483;SDS011;62942;52.462;10.846;2023-02-28T05:46:31;7.2;;;9.9;;
74483;SDS011;62942;52.462;10.846;2023-02-28T05:47:31;7.6;;;10.7;;
74483;SDS011;62942;52.462;10.846;2023-02-28T05:48:42;7.8;;;10.3;;
74483;SDS011;62942;52.462;10.846;2023-02-28T05:49:51;7.8;;;11.8;;
74483;SDS011;62942;52.462;10.846;2023-02-28T05:51:02;8;;;11.7;;
74483;SDS011;62942;52.462;10.846;2023-02-28T05:52:01;8.2;;;12.5;;
74483;SDS011;62942;52.462;10.846;2023-02-28T05:53:11;9.2;;;14.1;;
74483;SDS011;62942;52.462;10.846;2023-02-28T05:54:11;7.7;;;11.2;;
74483;SDS011;62942;52.462;10.846;2023-02-28T05:55:11;8;;;11.7;;
74483;SDS011;62942;52.462;10.846;2023-02-28T05:56:21;8.9;;;12.7;;
74483;SDS011;62942;52.462;10.846;2023-02-28T05:57:31;11.4;;;16.7;;
74483;SDS011;62942;52.462;10.846;2023-02-28T05:58:31;14.6;;;19.5;;
74483;SDS011;62942;52.462;10.846;2023-02-28T05:59:41;10;;;13.9;;
74483;SDS011;62942;52.462;10.846;2023-02-28T06:00:51;9.6;;;12.9;;
74483;SDS011;62942;52.462;10.846;2023-02-28T06:02:01;9.6;;;13.9;;
74483;SDS011;62942;52.462;10.846;2023-02-28T06:03:11;9.8;;;14.9;;
74483;SDS011;62942;52.462;10.846;2023-02-28T06:04:21;9.8;;;13.8;;
74483;SDS011;62942;52.462;10.846;2023-02-28T06:05:31;12;;;17.9;;
74483;SDS011;62942;52.462;10.846;2023-02-28T06:06:41;10.5;;;14.9;;
74483;SDS011;62942;52.462;10.846;2023-02-28T06:07:41;9.9;;;13.7;;
74483;SDS011;62942;52.462;10.846;2023-02-28T06:08:51;9;;;14.2;;
74483;SDS011;62942;52.462;10.846;2023-02-28T06:10:01;9.6;;;13.2;;
74483;SDS011;62942;52.462;10.846;2023-02-28T06:11:11;8.6;;;12.7;;
74483;SDS011;62942;52.462;10.846;2023-02-28T06:12:21;8.1;;;13.1;;
74483;SDS011;62942;52.462;10.846;2023-02-28T06:13:31;9;;;13.3;;
74483;SDS011;62942;52.462;10.846;2023-02-28T06:14:41;9.3;;;13;;
74483;SDS011;62942;52.462;10.846;2023-02-28T06:15:51;8.4;;;12.2;;
74483;SDS011;62942;52.462;10.846;2023-02-28T06:16:51;8.6;;;13;;
74483;SDS011;62942;52.462;10.846;2023-02-28T06:18:01;8.2;;;12.1;;
74483;SDS011;62942;52.462;10.846;2023-02-28T06:19:02;8.8;;;13.1;;
74483;SDS011;62942;52.462;10.846;2023-02-28T06:20:11;8.5;;;13.6;;
74483;SDS011;62942;52.462;10.846;2023-02-28T06:21:21;8.6;;;12;;
74483;SDS011;62942;52.462;10.846;2023-02-28T06:22:21;8;;;11.6;;
74483;SDS011;62942;52.462;10.846;2023-02-28T06:23:31;8.4;;;12.2;;
74483;SDS011;62942;52.462;10.846;2023-02-28T06:24:41;8.2;;;11.3;;
74483;SDS011;62942;52.462;10.846;2023-02-28T06:25:44;8;;;12.8;;
74483;SDS011;62942;52.462;10.846;2023-02-28T06:26:51;8.4;;;13;;
74483;SDS011;62942;52.462;10.846;2023-02-28T06:28:01;8.5;;;12.3;;
74483;SDS011;62942;52.462;10.846;2023-02-28T06:29:02;8.7;;;12.9;;
74483;SDS011;62942;52.462;10.846;2023-02-28T06:30:01;8.6;;;12.2;;
74483;SDS011;62942;52.462;10.846;2023-02-28T06:31:12;8.3;;;12.9;;
74483;SDS011;62942;52.462;10.846;2023-02-28T06:32:21;9;;;13.3;;
74483;SDS011;62942;52.462;10.846;2023-02-28T06:33:31;9;;;13.8;;
74483;SDS011;62942;52.462;10.846;2023-02-28T06:34:41;8.5;;;13.4;;
74483;SDS011;62942;52.462;10.846;2023-02-28T06:35:43;8.5;;;12.1;;
74483;SDS011;62942;52.462;10.846;2023-02-28T06:36:41;8.6;;;11.9;;
74483;SDS011;62942;52.462;10.846;2023-02-28T06:37:51;8.8;;;12.8;;
74483;SDS011;62942;52.462;10.846;2023-02-28T06:39:01;8.5;;;12.1;;